Online since October of 2007


Bigbaywx more information Bigbaywx


mount mesnard more information Mount Mesnard


visit our other weather sites:

Template documentation
and downloads

And another site


CBI


there are no active watches, warnings or advisories

nearby metar reports

   
KSAW - Sawyer, Michigan
updated: Nov 25 2020 11:47 am
overcast  
overcast  
   wind: calm
wind: calm
temperature: 33.8°F
dew point: 32°F
humidity: 93%
barometer: 29.91 inHg
clouds: overcast
visibility: 10 mi
cloud details: overcast 305 m
KSAW 251647Z 00000KT 10SM OVC010 01/00 A2991
KESC - Escanaba, Michigan
updated: Nov 25 2020 11:56 am
overcast  
overcast  
   wind: varies 4.6 mph
wind: varies 4.6 mph
temperature: 39.2°F
wind chill: 35.6°F
dew point: 35.6°F
humidity: 87%
barometer: 29.91 inHg
clouds: overcast
visibility: 10 mi
cloud details: mostly cloudy 488 m,
overcast 945 m
KESC 251656Z AUTO VRB04KT 10SM BKN016 OVC031 04/02 A2991 RMK AO2 SLP138 T00390017
KIMT - Iron Mountain, MI
updated: Nov 25 2020 11:54 am
overcast  
overcast  
   wind: north 4.6 mph
wind: north 4.6 mph
temperature: 33.8°F
wind chill: 30.2°F
dew point: 30.2°F
humidity: 87%
barometer: 29.89 inHg
clouds: overcast
visibility: 10 mi
cloud details: overcast 152 m
KIMT 251654Z AUTO 35004KT 10SM OVC005 01/M01 A2989 RMK AO2 SLP134 T00111006
KGRB - Green Bay, WI
updated: Nov 25 2020 11:53 am
overcast  
overcast  
   wind: ne 10.4 mph
wind: ne 10.4 mph
temperature: 37.4°F
wind chill: 30.2°F
dew point: 35.6°F
humidity: 93%
barometer: 29.89 inHg
clouds: overcast
visibility: 8 mi
cloud details: overcast 152 m
KGRB 251653Z 04009KT 8SM OVC005 03/02 A2989 RMK AO2 SLP127 T00330017
KDET - Detroit, MI
updated: Nov 25 2020 11:53 am
mist, overcast  
mist, overcast  
   wind: south 6.9 mph
wind: south 6.9 mph
temperature: 44.6°F
wind chill: 41°F
dew point: 42.8°F
humidity: 93%
barometer: 29.94 inHg
clouds: overcast
visibility: 4 mi
cloud details: overcast 122 m
KDET 251653Z 17006KT 4SM BR OVC004 07/06 A2994 RMK AO2 RAB33E46 SLP144 P0000 T00720056
 

script developed by  Saratoga-weather.org adapted for the template by  Weerstation Leuven

you find our weather info also at:

Weather Underground

midwestern weather network

WeatherlinkIP

Citizen Weather Observer Program (CWOP)

equipment we use:

weather-station
Davis VP2

weather-program
Davis Weatherlink.Com

Davis VP2

Davis Weatherlink.Com